createdAt,value
2023-01-28T00:01:01.322Z,87.20
2023-01-28T00:09:09.602Z,87.50
2023-01-28T00:17:15.424Z,87.00
2023-01-28T00:25:23.720Z,87.70
2023-01-28T00:33:29.726Z,87.60
2023-01-28T00:41:37.772Z,87.70
2023-01-28T00:49:43.255Z,87.80
2023-01-28T00:57:51.745Z,87.80
2023-01-28T01:06:00.495Z,88.00
2023-01-28T01:14:08.630Z,87.70
2023-01-28T01:22:14.129Z,88.10
2023-01-28T01:30:22.800Z,88.20
2023-01-28T01:38:28.599Z,88.20
2023-01-28T01:46:43.682Z,88.20
2023-01-28T01:54:54.339Z,88.00
2023-01-28T02:03:02.874Z,88.20
2023-01-28T02:11:11.567Z,88.20
2023-01-28T02:19:25.356Z,87.80
2023-01-28T02:27:39.990Z,87.60
2023-01-28T02:35:53.542Z,87.30
2023-01-28T02:43:59.235Z,87.20
2023-01-28T02:52:45.481Z,87.20
2023-01-28T03:00:59.143Z,87.30
2023-01-28T03:09:20.701Z,87.00
2023-01-28T03:17:43.768Z,87.10
2023-01-28T03:26:07.325Z,87.80
2023-01-28T03:34:26.735Z,88.20
2023-01-28T03:42:35.507Z,88.30
2023-01-28T03:51:00.517Z,88.00
2023-01-28T03:59:10.953Z,87.60
2023-01-28T04:07:17.471Z,87.10
2023-01-28T04:16:05.707Z,87.80
2023-01-28T04:24:17.641Z,87.10
2023-01-28T04:32:25.839Z,86.80
2023-01-28T04:40:53.057Z,86.80
2023-01-28T04:49:07.688Z,86.60
2023-01-28T04:57:31.914Z,87.00
2023-01-28T05:05:40.660Z,87.00
2023-01-28T05:14:00.670Z,86.60
2023-01-28T05:22:14.769Z,86.80
2023-01-28T05:30:23.535Z,86.70
2023-01-28T05:38:32.232Z,87.10
2023-01-28T05:46:37.932Z,86.80
2023-01-28T05:55:01.417Z,88.10
2023-01-28T06:03:06.898Z,89.00
2023-01-28T06:11:18.440Z,89.40
2023-01-28T06:19:25.301Z,88.80
2023-01-28T06:27:33.495Z,87.90
2023-01-28T06:35:39.638Z,87.40
2023-01-28T06:43:47.878Z,86.90
2023-01-28T06:51:53.563Z,86.80
2023-01-28T07:00:01.712Z,86.80
2023-01-28T07:08:07.244Z,86.60
2023-01-28T07:16:15.220Z,86.90
2023-01-28T07:24:20.658Z,86.90
2023-01-28T07:32:29.371Z,86.70
2023-01-28T07:40:34.813Z,85.60
2023-01-28T07:48:42.907Z,85.70
2023-01-28T07:56:48.342Z,84.80
2023-01-28T08:04:59.464Z,85.40
2023-01-28T08:13:05.024Z,84.60
2023-01-28T08:21:13.059Z,84.60
2023-01-28T08:29:18.399Z,83.80
2023-01-28T08:37:27.356Z,83.80
2023-01-28T08:45:32.754Z,83.10
2023-01-28T08:53:40.851Z,83.00
2023-01-28T09:01:46.309Z,81.80
2023-01-28T09:09:54.403Z,82.00
2023-01-28T09:18:01.466Z,80.20
2023-01-28T09:26:10.262Z,79.00
2023-01-28T09:34:15.931Z,78.00
2023-01-28T09:42:53.431Z,77.50
2023-01-28T09:50:59.319Z,77.00
2023-01-28T09:59:21.513Z,75.30
2023-01-28T10:07:44.516Z,74.80
2023-01-28T10:16:14.187Z,75.10
2023-01-28T10:24:26.281Z,75.20
2023-01-28T10:32:36.464Z,75.30
2023-01-28T10:40:44.944Z,75.20
2023-01-28T10:49:01.607Z,73.90
2023-01-28T10:57:14.058Z,75.10
2023-01-28T11:05:25.949Z,73.50
2023-01-28T11:13:33.036Z,73.10
2023-01-28T11:21:41.790Z,74.40
2023-01-28T11:29:47.759Z,74.80
2023-01-28T11:37:58.864Z,75.20
2023-01-28T11:46:19.526Z,74.90
2023-01-28T11:54:49.069Z,73.50
2023-01-28T12:03:00.795Z,73.90
2023-01-28T12:11:48.775Z,74.60
2023-01-28T12:20:05.985Z,74.70
2023-01-28T12:28:21.551Z,74.80
2023-01-28T12:36:36.869Z,75.40
2023-01-28T12:44:50.641Z,76.00
2023-01-28T12:52:57.366Z,77.20
2023-01-28T13:01:10.624Z,77.50
2023-01-28T13:09:20.123Z,77.90
2023-01-28T13:17:33.123Z,78.50
2023-01-28T13:25:39.439Z,78.90
2023-01-28T13:33:50.992Z,78.90
2023-01-28T13:41:58.170Z,79.80
2023-01-28T13:50:10.131Z,79.80
2023-01-28T13:58:48.093Z,79.80
2023-01-28T14:07:20.945Z,80.20
2023-01-28T14:15:50.026Z,80.10
2023-01-28T14:23:59.913Z,80.70
2023-01-28T14:32:14.935Z,81.40
2023-01-28T14:40:24.072Z,82.40
2023-01-28T14:48:38.496Z,82.60
2023-01-28T14:57:15.317Z,83.10
2023-01-28T15:05:25.218Z,83.40
2023-01-28T15:13:33.581Z,84.10
2023-01-28T15:21:42.026Z,84.10
2023-01-28T15:29:55.637Z,84.20
2023-01-28T15:38:04.455Z,84.70
2023-01-28T15:46:15.755Z,84.90
2023-01-28T15:54:24.982Z,84.90
2023-01-28T16:02:30.387Z,85.30
2023-01-28T16:10:38.812Z,85.00
2023-01-28T16:18:47.630Z,85.00
2023-01-28T16:27:02.999Z,85.00
2023-01-28T16:35:18.185Z,85.50
2023-01-28T16:43:52.133Z,85.50
2023-01-28T16:51:58.900Z,85.70
2023-01-28T17:00:08.022Z,85.60
2023-01-28T17:08:13.647Z,86.20
2023-01-28T17:16:21.900Z,86.20
2023-01-28T17:24:27.407Z,86.10
2023-01-28T17:32:35.791Z,85.80
2023-01-28T17:40:42.929Z,86.20
2023-01-28T17:48:51.104Z,86.00
2023-01-28T17:56:56.461Z,86.00
2023-01-28T18:05:04.501Z,86.50
2023-01-28T18:13:09.873Z,86.20
2023-01-28T18:21:26.350Z,86.40
2023-01-28T18:29:33.657Z,86.90
2023-01-28T18:38:02.787Z,86.70
2023-01-28T18:46:19.244Z,86.70
2023-01-28T18:54:27.643Z,87.00
2023-01-28T19:02:33.387Z,87.10
2023-01-28T19:10:43.139Z,87.00
2023-01-28T19:18:54.913Z,86.80
2023-01-28T19:27:03.061Z,86.70
2023-01-28T19:35:09.920Z,87.20
2023-01-28T19:43:18.191Z,87.10
2023-01-28T19:51:23.990Z,86.60
2023-01-28T19:59:32.305Z,86.80
2023-01-28T20:07:37.790Z,87.40
2023-01-28T20:15:46.096Z,87.50
2023-01-28T20:24:30.064Z,87.20
2023-01-28T20:33:27.994Z,86.90
2023-01-28T20:41:48.214Z,87.20
2023-01-28T20:49:56.296Z,87.10
2023-01-28T20:58:02.396Z,87.40
2023-01-28T21:06:11.586Z,87.80
2023-01-28T21:14:17.174Z,87.90
2023-01-28T21:22:25.205Z,88.00
2023-01-28T21:30:32.320Z,88.60
2023-01-28T21:38:40.922Z,88.10
2023-01-28T21:46:49.489Z,88.20
2023-01-28T21:54:59.358Z,88.10
2023-01-28T22:03:05.191Z,87.60
2023-01-28T22:11:14.357Z,87.20
2023-01-28T22:19:20.956Z,87.80
2023-01-28T22:27:29.391Z,87.20
2023-01-28T22:35:35.524Z,87.20
2023-01-28T22:43:44.847Z,87.20
2023-01-28T22:51:50.146Z,87.30
2023-01-28T23:00:00.355Z,86.70
2023-01-28T23:08:13.658Z,87.30
2023-01-28T23:16:34.840Z,86.60
2023-01-28T23:24:40.730Z,87.00
2023-01-28T23:32:51.603Z,86.80
2023-01-28T23:40:57.148Z,86.80
2023-01-28T23:49:05.527Z,86.50
2023-01-28T23:57:10.916Z,86.40
